createdAt,value
2023-03-20T00:01:14.385Z,20.30
2023-03-20T00:03:41.873Z,20.30
2023-03-20T00:06:28.893Z,20.30
2023-03-20T00:08:57.560Z,20.30
2023-03-20T00:11:28.823Z,20.30
2023-03-20T00:13:56.855Z,20.30
2023-03-20T00:16:24.166Z,20.30
2023-03-20T00:18:50.892Z,20.30
2023-03-20T00:21:18.041Z,20.30
2023-03-20T00:23:46.020Z,20.30
2023-03-20T00:26:18.200Z,20.30
2023-03-20T00:28:46.208Z,20.20
2023-03-20T00:31:28.341Z,20.20
2023-03-20T00:33:57.203Z,20.20
2023-03-20T00:36:24.025Z,20.30
2023-03-20T00:38:51.572Z,20.30
2023-03-20T00:41:31.214Z,20.30
2023-03-20T00:44:42.388Z,20.30
2023-03-20T00:47:12.870Z,20.30
2023-03-20T00:49:40.212Z,20.30
2023-03-20T00:52:06.940Z,20.30
2023-03-20T00:54:33.651Z,20.30
2023-03-20T00:57:06.577Z,20.30
2023-03-20T00:59:34.909Z,20.30
2023-03-20T01:02:02.592Z,20.20
2023-03-20T01:04:37.984Z,20.20
2023-03-20T01:07:04.877Z,20.20
2023-03-20T01:09:31.809Z,20.20
2023-03-20T01:12:02.415Z,20.20
2023-03-20T01:14:29.128Z,20.30
2023-03-20T01:16:55.874Z,20.30
2023-03-20T01:19:22.598Z,20.30
2023-03-20T01:21:49.263Z,20.30
2023-03-20T01:24:17.064Z,20.20
2023-03-20T01:26:44.702Z,20.20
2023-03-20T01:29:20.538Z,20.20
2023-03-20T01:31:48.561Z,20.20
2023-03-20T01:34:18.176Z,20.20
2023-03-20T01:36:54.677Z,20.20
2023-03-20T01:39:21.916Z,20.10
2023-03-20T01:41:49.362Z,20.10
2023-03-20T01:44:30.347Z,20.20
2023-03-20T01:46:57.131Z,20.20
2023-03-20T01:49:23.750Z,20.20
2023-03-20T01:51:51.349Z,20.20
2023-03-20T01:54:19.861Z,20.20
2023-03-20T01:56:49.862Z,20.20
2023-03-20T01:59:33.838Z,20.20
2023-03-20T02:02:00.681Z,20.20
2023-03-20T02:04:34.872Z,20.10
2023-03-20T02:07:01.688Z,20.10
2023-03-20T02:09:28.402Z,20.10
2023-03-20T02:11:55.133Z,20.10
2023-03-20T02:14:21.784Z,20.10
2023-03-20T02:16:49.477Z,20.10
2023-03-20T02:19:54.320Z,20.20
2023-03-20T02:22:39.805Z,20.20
2023-03-20T02:25:18.346Z,20.30
2023-03-20T02:28:03.068Z,20.30
2023-03-20T02:30:42.881Z,20.20
2023-03-20T02:33:28.124Z,20.20
2023-03-20T02:36:20.010Z,20.20
2023-03-20T02:39:01.497Z,20.20
2023-03-20T02:41:42.587Z,20.10
2023-03-20T02:44:31.329Z,20.10
2023-03-20T02:47:05.751Z,20.10
2023-03-20T02:50:23.481Z,20.10
2023-03-20T02:53:17.157Z,20.10
2023-03-20T02:55:53.345Z,20.20
2023-03-20T02:58:28.422Z,20.20
2023-03-20T03:01:01.552Z,20.20
2023-03-20T03:03:29.604Z,20.20
2023-03-20T03:05:57.924Z,20.20
2023-03-20T03:08:27.009Z,20.10
2023-03-20T03:11:02.612Z,20.10
2023-03-20T03:13:30.096Z,20.10
2023-03-20T03:16:03.059Z,20.00
2023-03-20T03:18:29.997Z,20.10
2023-03-20T03:20:58.314Z,20.00
2023-03-20T03:23:35.407Z,20.00
2023-03-20T03:26:03.591Z,20.10
2023-03-20T03:28:37.304Z,20.10
2023-03-20T03:31:05.746Z,20.20
2023-03-20T03:33:32.677Z,20.20
2023-03-20T03:36:34.395Z,20.10
2023-03-20T03:39:14.018Z,20.10
2023-03-20T03:41:59.650Z,20.10
2023-03-20T03:44:29.004Z,20.10
2023-03-20T03:47:20.224Z,20.00
2023-03-20T03:49:50.025Z,20.00
2023-03-20T03:52:19.879Z,20.00
2023-03-20T03:54:55.740Z,20.00
2023-03-20T03:57:29.587Z,20.00
2023-03-20T03:59:56.900Z,20.00
2023-03-20T04:02:23.603Z,20.00
2023-03-20T04:04:51.994Z,20.00
2023-03-20T04:07:18.775Z,20.10
2023-03-20T04:09:45.560Z,20.10
2023-03-20T04:12:38.632Z,20.10
2023-03-20T04:15:06.119Z,20.10
2023-03-20T04:17:33.116Z,20.00
2023-03-20T04:19:59.781Z,20.00
2023-03-20T04:22:28.161Z,20.00
2023-03-20T04:24:54.916Z,20.00
2023-03-20T04:27:21.586Z,20.00
2023-03-20T04:29:48.598Z,20.00
2023-03-20T04:32:15.364Z,20.00
2023-03-20T04:34:42.239Z,20.00
2023-03-20T04:37:09.322Z,20.00
2023-03-20T04:39:37.434Z,20.00
2023-03-20T04:42:04.632Z,20.00
2023-03-20T04:44:31.487Z,20.10
2023-03-20T04:46:59.139Z,20.10
2023-03-20T04:49:25.891Z,20.10
2023-03-20T04:51:52.916Z,20.00
2023-03-20T04:54:19.666Z,20.00
2023-03-20T04:56:46.346Z,20.00
2023-03-20T04:59:13.110Z,20.00
2023-03-20T05:01:39.899Z,19.90
2023-03-20T05:04:06.792Z,19.90
2023-03-20T05:06:33.546Z,19.90
2023-03-20T05:09:00.974Z,19.90
2023-03-20T05:11:28.427Z,19.90
2023-03-20T05:13:55.253Z,19.90
2023-03-20T05:16:21.937Z,20.00
2023-03-20T05:18:48.664Z,20.00
2023-03-20T05:21:15.631Z,20.00
2023-03-20T05:23:42.335Z,20.00
2023-03-20T05:26:09.189Z,20.00
2023-03-20T05:28:35.890Z,20.00
2023-03-20T05:31:02.644Z,20.00
2023-03-20T05:33:30.434Z,20.00
2023-03-20T05:35:57.161Z,19.90
2023-03-20T05:38:23.947Z,19.90
2023-03-20T05:40:50.655Z,19.90
2023-03-20T05:43:17.342Z,19.90
2023-03-20T05:45:44.034Z,19.90
2023-03-20T05:48:10.847Z,19.90
2023-03-20T05:50:37.617Z,20.00
2023-03-20T05:53:04.453Z,20.00
2023-03-20T05:55:31.682Z,20.00
2023-03-20T05:57:58.349Z,20.00
2023-03-20T06:00:25.173Z,20.00
2023-03-20T06:02:52.037Z,20.00
2023-03-20T06:05:18.790Z,20.00
2023-03-20T06:07:45.973Z,20.00
2023-03-20T06:10:12.681Z,20.00
2023-03-20T06:12:39.391Z,20.00
2023-03-20T06:15:06.571Z,20.00
2023-03-20T06:17:33.289Z,20.00
2023-03-20T06:20:00.318Z,20.00
2023-03-20T06:22:26.977Z,20.00
2023-03-20T06:24:56.570Z,20.00
2023-03-20T06:27:23.675Z,20.00
2023-03-20T06:29:50.556Z,20.00
2023-03-20T06:32:17.819Z,20.00
2023-03-20T06:34:44.584Z,20.00
2023-03-20T06:37:11.541Z,20.00
2023-03-20T06:39:38.251Z,20.00
2023-03-20T06:42:05.041Z,20.00
2023-03-20T06:44:31.822Z,20.00
2023-03-20T06:46:58.604Z,20.00
2023-03-20T06:49:25.547Z,20.00
2023-03-20T06:51:52.738Z,20.00
2023-03-20T06:54:19.450Z,20.00
2023-03-20T06:56:46.741Z,20.00
2023-03-20T06:59:13.974Z,20.00
2023-03-20T07:01:40.727Z,20.00
2023-03-20T07:04:07.607Z,20.00
2023-03-20T07:06:34.885Z,20.00
2023-03-20T07:09:01.847Z,20.00
2023-03-20T07:11:28.846Z,20.00
2023-03-20T07:13:55.921Z,20.00
2023-03-20T07:16:22.976Z,20.00
2023-03-20T07:18:49.909Z,20.00
2023-03-20T07:21:21.357Z,20.00
2023-03-20T07:23:48.408Z,20.10
2023-03-20T07:26:15.828Z,20.10
2023-03-20T07:28:42.965Z,20.00
2023-03-20T07:31:18.716Z,20.00
2023-03-20T07:33:45.670Z,20.00
2023-03-20T07:36:12.324Z,20.00
2023-03-20T07:38:39.029Z,20.00
2023-03-20T07:41:05.990Z,20.00
2023-03-20T07:43:33.290Z,20.10
2023-03-20T07:46:04.291Z,20.10
2023-03-20T07:48:32.651Z,20.10
2023-03-20T07:50:59.482Z,20.10
2023-03-20T07:53:27.056Z,20.10
2023-03-20T07:55:54.028Z,20.10
2023-03-20T07:58:20.886Z,20.10
2023-03-20T08:00:47.594Z,20.10
2023-03-20T08:03:14.450Z,20.20
2023-03-20T08:05:41.460Z,20.10
2023-03-20T08:08:08.323Z,20.10
2023-03-20T08:10:35.206Z,20.20
2023-03-20T08:13:02.477Z,20.20
2023-03-20T08:15:29.141Z,20.20
2023-03-20T08:17:58.156Z,20.20
2023-03-20T08:20:24.868Z,20.20
2023-03-20T08:22:51.511Z,20.20
2023-03-20T08:25:18.340Z,20.20
2023-03-20T08:27:45.353Z,20.20
2023-03-20T08:30:13.903Z,20.30
2023-03-20T08:32:41.092Z,20.30
2023-03-20T08:35:16.343Z,20.30
2023-03-20T08:37:48.959Z,20.30
2023-03-20T08:40:16.860Z,20.40
2023-03-20T08:42:43.576Z,20.40
2023-03-20T08:45:11.253Z,20.40
2023-03-20T08:47:40.212Z,20.50
2023-03-20T08:50:07.782Z,20.60
2023-03-20T08:52:34.506Z,20.60
2023-03-20T08:55:02.821Z,20.60
2023-03-20T08:57:30.215Z,20.60
2023-03-20T08:59:58.277Z,20.50
2023-03-20T09:02:25.041Z,20.40
2023-03-20T09:04:51.781Z,20.40
2023-03-20T09:07:18.638Z,20.40
2023-03-20T09:09:45.634Z,20.40
2023-03-20T09:12:12.402Z,20.40
2023-03-20T09:14:39.237Z,20.40
2023-03-20T09:17:06.036Z,20.40
2023-03-20T09:19:32.869Z,20.40
2023-03-20T09:22:00.442Z,20.40
2023-03-20T09:24:29.242Z,20.50
2023-03-20T09:26:55.978Z,20.50
2023-03-20T09:29:22.656Z,20.60
2023-03-20T09:31:49.331Z,20.60
2023-03-20T09:34:16.152Z,20.60
2023-03-20T09:36:42.890Z,20.60
2023-03-20T09:39:09.604Z,20.50
2023-03-20T09:41:49.210Z,20.50
2023-03-20T09:44:46.049Z,20.50
2023-03-20T09:47:34.474Z,20.60
2023-03-20T09:50:08.023Z,20.50
2023-03-20T09:52:36.813Z,20.60
2023-03-20T09:55:13.257Z,20.50
2023-03-20T09:57:41.731Z,20.60
2023-03-20T10:00:18.076Z,20.60
2023-03-20T10:02:59.022Z,20.60
2023-03-20T10:05:32.564Z,20.60
2023-03-20T10:08:02.019Z,20.60
2023-03-20T10:11:02.830Z,20.60
2023-03-20T10:14:02.911Z,20.50
2023-03-20T10:16:39.643Z,20.60
2023-03-20T10:19:14.050Z,20.60
2023-03-20T10:21:44.900Z,20.70
2023-03-20T10:24:19.490Z,20.70
2023-03-20T10:26:47.331Z,20.70
2023-03-20T10:29:23.411Z,20.70
2023-03-20T10:32:17.165Z,20.70
2023-03-20T10:35:10.993Z,20.70
2023-03-20T10:37:49.970Z,20.80
2023-03-20T10:40:23.669Z,20.80
2023-03-20T10:42:51.252Z,20.80
2023-03-20T10:45:17.925Z,20.80
2023-03-20T10:47:44.980Z,20.80
2023-03-20T10:50:17.004Z,20.80
2023-03-20T10:52:44.178Z,20.80
2023-03-20T10:55:16.097Z,20.90
2023-03-20T10:57:47.512Z,20.90
2023-03-20T11:00:24.974Z,20.90
2023-03-20T11:02:52.054Z,20.80
2023-03-20T11:05:34.617Z,20.90
2023-03-20T11:08:07.476Z,20.90
2023-03-20T11:10:36.028Z,20.80
2023-03-20T11:13:26.587Z,20.80
2023-03-20T11:15:54.052Z,20.80
2023-03-20T11:18:20.816Z,20.90
2023-03-20T11:20:58.131Z,20.90
2023-03-20T11:23:35.289Z,20.80
2023-03-20T11:26:06.862Z,20.80
2023-03-20T11:28:34.468Z,20.90
2023-03-20T11:31:06.613Z,20.80
2023-03-20T11:33:46.337Z,20.80
2023-03-20T11:36:21.951Z,20.80
2023-03-20T11:38:49.115Z,20.80
2023-03-20T11:41:26.680Z,20.80
2023-03-20T11:43:53.557Z,20.80
2023-03-20T11:46:23.217Z,20.80
2023-03-20T11:49:05.965Z,20.80
2023-03-20T11:51:35.394Z,20.80
2023-03-20T11:54:06.460Z,20.80
2023-03-20T11:56:33.581Z,20.80
2023-03-20T11:59:13.978Z,20.80
2023-03-20T12:01:46.993Z,20.80
2023-03-20T12:04:42.953Z,20.80
2023-03-20T12:07:18.381Z,20.80
2023-03-20T12:09:54.017Z,20.90
2023-03-20T12:12:42.445Z,20.90
2023-03-20T12:15:33.618Z,20.90
2023-03-20T12:18:24.795Z,20.90
2023-03-20T12:21:08.599Z,20.80
2023-03-20T12:23:38.303Z,20.80
2023-03-20T12:26:07.501Z,20.80
2023-03-20T12:28:43.446Z,20.90
2023-03-20T12:31:21.292Z,20.90
2023-03-20T12:33:53.992Z,20.90
2023-03-20T12:36:29.767Z,20.90
2023-03-20T12:38:56.500Z,20.80
2023-03-20T12:41:26.718Z,20.90
2023-03-20T12:44:05.370Z,20.90
2023-03-20T12:46:53.883Z,20.90
2023-03-20T12:49:29.862Z,20.80
2023-03-20T12:51:59.221Z,20.80
2023-03-20T12:55:07.181Z,20.80
2023-03-20T12:57:47.162Z,20.80
2023-03-20T13:00:23.500Z,20.80
2023-03-20T13:02:57.002Z,20.80
2023-03-20T13:05:32.754Z,20.80
2023-03-20T13:08:00.377Z,20.80
2023-03-20T13:10:37.112Z,20.80
2023-03-20T13:13:39.303Z,20.80
2023-03-20T13:16:30.195Z,20.80
2023-03-20T13:19:17.718Z,20.80
2023-03-20T13:21:56.766Z,20.80
2023-03-20T13:24:38.131Z,20.80
2023-03-20T13:27:29.493Z,20.80
2023-03-20T13:30:08.649Z,20.80
2023-03-20T13:32:39.639Z,20.80
2023-03-20T13:35:35.295Z,20.80
2023-03-20T13:38:11.304Z,20.90
2023-03-20T13:40:43.953Z,20.90
2023-03-20T13:43:39.571Z,20.90
2023-03-20T13:46:25.507Z,21.00
2023-03-20T13:48:53.005Z,21.00
2023-03-20T13:51:27.308Z,21.00
2023-03-20T13:54:16.272Z,21.10
2023-03-20T13:56:54.597Z,21.10
2023-03-20T13:59:49.401Z,21.10
2023-03-20T14:02:28.201Z,21.10
2023-03-20T14:05:22.877Z,21.10
2023-03-20T14:07:50.578Z,21.10
2023-03-20T14:10:24.001Z,21.10
2023-03-20T14:12:50.743Z,21.10
2023-03-20T14:15:19.400Z,21.10
2023-03-20T14:17:47.234Z,21.20
2023-03-20T14:20:38.699Z,21.20
2023-03-20T14:23:07.329Z,21.20
2023-03-20T14:25:44.233Z,21.20
2023-03-20T14:28:14.015Z,21.20
2023-03-20T14:30:49.027Z,21.20
2023-03-20T14:33:21.075Z,21.20
2023-03-20T14:35:50.789Z,21.30
2023-03-20T14:38:39.656Z,21.30
2023-03-20T14:41:15.853Z,21.30
2023-03-20T14:43:58.501Z,21.30
2023-03-20T14:46:47.503Z,21.30
2023-03-20T14:49:22.834Z,21.30
2023-03-20T14:51:50.729Z,21.30
2023-03-20T14:54:28.812Z,21.30
2023-03-20T14:56:55.631Z,21.30
2023-03-20T14:59:25.152Z,21.40
2023-03-20T15:02:00.099Z,21.40
2023-03-20T15:04:34.958Z,21.30
2023-03-20T15:07:15.027Z,21.40
2023-03-20T15:09:46.194Z,21.40
2023-03-20T15:12:14.354Z,21.50
2023-03-20T15:14:52.294Z,21.60
2023-03-20T15:17:27.275Z,21.60
2023-03-20T15:20:07.828Z,21.70
2023-03-20T15:22:36.546Z,21.70
2023-03-20T15:25:04.212Z,21.70
2023-03-20T15:27:31.009Z,21.70
2023-03-20T15:29:57.907Z,21.70
2023-03-20T15:32:24.572Z,21.70
2023-03-20T15:34:51.295Z,21.70
2023-03-20T15:37:23.381Z,21.80
2023-03-20T15:39:52.041Z,21.80
2023-03-20T15:42:23.271Z,21.80
2023-03-20T15:44:52.143Z,21.80
2023-03-20T15:47:23.215Z,21.90
2023-03-20T15:49:56.934Z,21.90
2023-03-20T15:52:42.072Z,22.00
2023-03-20T15:55:16.758Z,22.00
2023-03-20T15:57:44.852Z,22.00
2023-03-20T16:00:26.470Z,22.00
2023-03-20T16:02:53.149Z,22.00
2023-03-20T16:05:19.993Z,22.00
2023-03-20T16:07:47.382Z,22.00
2023-03-20T16:10:18.728Z,22.00
2023-03-20T16:12:54.441Z,22.00
2023-03-20T16:15:21.776Z,22.00
2023-03-20T16:17:49.660Z,22.00
2023-03-20T16:20:16.935Z,22.00
2023-03-20T16:22:44.101Z,22.00
2023-03-20T16:25:15.450Z,22.10
2023-03-20T16:27:42.302Z,22.10
2023-03-20T16:30:20.116Z,22.10
2023-03-20T16:32:47.662Z,22.10
2023-03-20T16:35:17.650Z,22.10
2023-03-20T16:37:58.169Z,22.00
2023-03-20T16:40:28.606Z,22.00
2023-03-20T16:42:57.156Z,21.90
2023-03-20T16:45:28.878Z,21.90
2023-03-20T16:48:11.187Z,21.90
2023-03-20T16:50:41.922Z,21.80
2023-03-20T16:53:14.107Z,21.80
2023-03-20T16:55:48.354Z,21.80
2023-03-20T16:58:23.864Z,21.80
2023-03-20T17:01:09.340Z,21.80
2023-03-20T17:03:44.975Z,21.80
2023-03-20T17:06:23.198Z,21.70
2023-03-20T17:09:00.470Z,21.70
2023-03-20T17:11:32.920Z,21.70
2023-03-20T17:13:59.862Z,21.70
2023-03-20T17:16:26.735Z,21.70
2023-03-20T17:19:10.990Z,21.60
2023-03-20T17:21:37.902Z,21.60
2023-03-20T17:24:05.192Z,21.60
2023-03-20T17:26:31.854Z,21.60
2023-03-20T17:28:58.549Z,21.50
2023-03-20T17:31:25.290Z,21.50
2023-03-20T17:33:52.720Z,21.40
2023-03-20T17:36:28.234Z,21.40
2023-03-20T17:38:55.590Z,21.50
2023-03-20T17:41:22.863Z,21.50
2023-03-20T17:43:51.443Z,21.60
2023-03-20T17:46:29.380Z,21.60
2023-03-20T17:49:07.781Z,21.60
2023-03-20T17:51:36.682Z,21.50
2023-03-20T17:54:03.589Z,21.40
2023-03-20T17:56:32.719Z,21.40
2023-03-20T17:59:00.183Z,21.50
2023-03-20T18:01:31.761Z,21.50
2023-03-20T18:03:59.242Z,21.50
2023-03-20T18:06:29.917Z,21.50
2023-03-20T18:08:57.128Z,21.40
2023-03-20T18:11:24.131Z,21.40
2023-03-20T18:13:50.867Z,21.30
2023-03-20T18:16:22.553Z,21.30
2023-03-20T18:18:49.365Z,21.30
2023-03-20T18:21:16.779Z,21.50
2023-03-20T18:23:44.358Z,21.40
2023-03-20T18:26:26.415Z,21.30
2023-03-20T18:28:53.869Z,21.30
2023-03-20T18:31:20.929Z,21.30
2023-03-20T18:33:48.905Z,21.40
2023-03-20T18:36:17.222Z,21.50
2023-03-20T18:38:44.284Z,21.50
2023-03-20T18:41:11.681Z,21.50
2023-03-20T18:43:39.418Z,21.50
2023-03-20T18:46:11.704Z,21.60
2023-03-20T18:48:38.583Z,21.60
2023-03-20T18:51:06.794Z,21.50
2023-03-20T18:53:33.523Z,21.50
2023-03-20T18:56:01.073Z,21.50
2023-03-20T18:58:28.915Z,21.50
2023-03-20T19:00:56.779Z,21.40
2023-03-20T19:03:24.349Z,21.50
2023-03-20T19:05:52.488Z,21.50
2023-03-20T19:08:19.498Z,21.50
2023-03-20T19:10:46.718Z,21.50
2023-03-20T19:13:15.840Z,21.50
2023-03-20T19:15:43.019Z,21.40
2023-03-20T19:18:23.163Z,21.40
2023-03-20T19:20:55.489Z,21.40
2023-03-20T19:23:23.442Z,21.30
2023-03-20T19:25:51.958Z,21.20
2023-03-20T19:28:37.714Z,21.30
2023-03-20T19:31:07.379Z,21.40
2023-03-20T19:33:34.372Z,21.40
2023-03-20T19:36:11.817Z,21.40
2023-03-20T19:38:39.980Z,21.40
2023-03-20T19:41:08.822Z,21.40
2023-03-20T19:43:51.420Z,21.40
2023-03-20T19:46:36.262Z,21.50
2023-03-20T19:49:06.450Z,21.40
2023-03-20T19:51:33.630Z,21.40
2023-03-20T19:54:00.647Z,21.30
2023-03-20T19:56:27.395Z,21.30
2023-03-20T19:58:54.800Z,21.30
2023-03-20T20:01:24.364Z,21.30
2023-03-20T20:03:53.625Z,21.30
2023-03-20T20:06:22.352Z,21.30
2023-03-20T20:08:49.805Z,21.30
2023-03-20T20:11:19.736Z,21.30
2023-03-20T20:14:07.191Z,21.30
2023-03-20T20:16:34.589Z,21.20
2023-03-20T20:19:01.344Z,21.20
2023-03-20T20:22:13.370Z,21.20
2023-03-20T20:24:18.645Z,21.20
2023-03-20T20:26:54.483Z,21.10
2023-03-20T20:29:25.176Z,21.10
2023-03-20T20:31:52.079Z,21.20
2023-03-20T20:37:56.429Z,21.20
2023-03-20T20:39:53.335Z,21.20
2023-03-20T20:42:20.574Z,21.30
2023-03-20T20:44:47.329Z,21.30
2023-03-20T20:47:14.119Z,21.30
2023-03-20T20:49:40.961Z,21.30
2023-03-20T20:52:09.106Z,21.30
2023-03-20T20:54:35.831Z,21.30
2023-03-20T20:57:02.548Z,21.30
2023-03-20T20:59:29.376Z,21.30
2023-03-20T21:01:56.491Z,21.30
2023-03-20T21:04:23.323Z,21.30
2023-03-20T21:07:08.613Z,21.30
2023-03-20T21:09:36.708Z,21.30
2023-03-20T21:12:03.998Z,21.20
2023-03-20T21:14:30.822Z,21.20
2023-03-20T21:17:00.864Z,21.20
2023-03-20T21:19:33.473Z,21.20
2023-03-20T21:22:00.405Z,21.20
2023-03-20T21:24:33.584Z,21.20
2023-03-20T21:27:03.057Z,21.20
2023-03-20T21:29:29.804Z,21.20
2023-03-20T21:31:56.634Z,21.10
2023-03-20T21:34:23.434Z,21.10
2023-03-20T21:36:51.419Z,21.10
2023-03-20T21:39:18.451Z,21.10
2023-03-20T21:41:46.016Z,21.00
2023-03-20T21:44:17.473Z,21.00
2023-03-20T21:55:57.554Z,20.90
2023-03-20T22:01:39.734Z,20.90
2023-03-20T22:04:22.082Z,20.90
2023-03-20T22:15:23.327Z,20.80
2023-03-20T22:21:03.851Z,20.80
2023-03-20T22:23:45.574Z,20.70
2023-03-20T22:29:32.661Z,20.70
2023-03-20T22:32:35.022Z,20.70
2023-03-20T22:40:50.368Z,20.70
2023-03-20T22:43:02.467Z,20.80
2023-03-20T22:45:38.141Z,20.70
2023-03-20T22:48:11.596Z,20.70
2023-03-20T22:50:40.107Z,20.70
2023-03-20T22:53:06.970Z,20.70
2023-03-20T22:55:33.649Z,20.70
2023-03-20T22:58:07.397Z,20.60
2023-03-20T23:00:35.542Z,20.60
2023-03-20T23:03:17.238Z,20.60
2023-03-20T23:05:47.107Z,20.60
2023-03-20T23:08:14.837Z,20.60
2023-03-20T23:10:47.137Z,20.60
2023-03-20T23:13:14.905Z,20.60
2023-03-20T23:15:41.776Z,20.60
2023-03-20T23:18:09.728Z,20.60
2023-03-20T23:20:36.602Z,20.60
2023-03-20T23:23:03.473Z,20.60
2023-03-20T23:25:38.892Z,20.60
2023-03-20T23:28:08.051Z,20.60
2023-03-20T23:30:44.350Z,20.60
2023-03-20T23:33:13.168Z,20.60
2023-03-20T23:35:39.959Z,20.50
2023-03-20T23:38:06.697Z,20.50
2023-03-20T23:40:33.365Z,20.50
2023-03-20T23:43:00.200Z,20.50
2023-03-20T23:45:27.142Z,20.50
2023-03-20T23:47:53.891Z,20.40
2023-03-20T23:50:28.886Z,20.40
2023-03-20T23:53:09.488Z,20.40
2023-03-20T23:55:44.703Z,20.40
2023-03-20T23:58:11.724Z,20.50
